Time;durP1;ratioP1;P1;durP2;ratioP2;P2;SDS_P1;SDS_P2;PMS_P1;PMS_P2;Temp;Humidity;BMP_temperature;BMP_pressure;BME280_temperature;BME280_humidity;BME280_pressure;Samples;Min_cycle;Max_cycle;Signal;HPM_P1;HPM_P2
2022/03/25 00:01:33;;;;;;;18.60;15.53;;;;;;;;;;5075360;28;20501;-67
2022/03/25 00:03:59;;;;;;;20.90;14.40;;;;;;;;;;5075374;28;20433;-68
2022/03/25 00:06:26;;;;;;;16.00;14.30;;;;;;;;;;5075244;28;20418;-67
2022/03/25 00:08:52;;;;;;;20.30;15.83;;;;;;;;;;5075456;28;20392;-69
2022/03/25 00:11:18;;;;;;;18.50;14.87;;;;;;;;;;5075565;28;20406;-67
2022/03/25 00:13:44;;;;;;;22.33;13.80;;;;;;;;;;5073959;28;20497;-68
2022/03/25 00:16:10;;;;;;;20.37;13.60;;;;;;;;;;5075006;28;20871;-68
2022/03/25 00:18:36;;;;;;;18.40;14.00;;;;;;;;;;5075260;28;20392;-68
2022/03/25 00:21:02;;;;;;;21.67;13.40;;;;;;;;;;5074994;28;20399;-70
2022/03/25 00:23:28;;;;;;;17.15;13.82;;;;;;;;;;5074580;28;20504;-70
2022/03/25 00:25:56;;;;;;;25.43;14.40;;;;;;;;;;5074623;28;20621;-69
2022/03/25 00:28:22;;;;;;;19.87;14.20;;;;;;;;;;5073153;28;20415;-67
2022/03/25 00:30:49;;;;;;;19.77;15.20;;;;;;;;;;5074995;28;20406;-68
2022/03/25 00:33:15;;;;;;;26.13;14.30;;;;;;;;;;5074770;28;20740;-70
2022/03/25 00:35:42;;;;;;;19.00;14.90;;;;;;;;;;5074743;28;20557;-70
2022/03/25 00:38:08;;;;;;;16.37;13.77;;;;;;;;;;5074566;28;20402;-69
2022/03/25 00:40:33;;;;;;;18.00;12.97;;;;;;;;;;5054518;28;20926;-70
2022/03/25 00:43:00;;;;;;;17.00;13.60;;;;;;;;;;5053329;28;20426;-69
2022/03/25 00:45:28;;;;;;;17.30;13.90;;;;;;;;;;5054354;28;20891;-69
2022/03/25 00:47:55;;;;;;;17.97;14.47;;;;;;;;;;5054447;28;20946;-69
2022/03/25 00:50:21;;;;;;;15.40;13.53;;;;;;;;;;5054423;28;20778;-69
2022/03/25 00:52:48;;;;;;;15.33;13.73;;;;;;;;;;5054328;28;20385;-69
2022/03/25 00:55:14;;;;;;;14.47;12.73;;;;;;;;;;5054525;28;20426;-69
2022/03/25 00:57:40;;;;;;;16.43;13.17;;;;;;;;;;5054597;28;20480;-69
2022/03/25 01:00:15;;;;;;;13.63;12.23;;;;;;;;;;5054202;28;20421;-69
2022/03/25 01:02:41;;;;;;;19.70;13.57;;;;;;;;;;5052984;28;20798;-69
2022/03/25 01:05:07;;;;;;;15.10;13.47;;;;;;;;;;5054219;28;20415;-69
2022/03/25 01:07:34;;;;;;;18.57;13.30;;;;;;;;;;5054184;28;20491;-69
2022/03/25 01:10:00;;;;;;;17.20;13.80;;;;;;;;;;5054173;28;20846;-69
2022/03/25 01:12:26;;;;;;;16.67;13.73;;;;;;;;;;5054120;28;20469;-69
2022/03/25 01:14:52;;;;;;;15.63;13.80;;;;;;;;;;5054084;28;20821;-68
2022/03/25 01:17:18;;;;;;;17.20;12.73;;;;;;;;;;5053880;28;20491;-69
2022/03/25 01:19:46;;;;;;;16.63;13.83;;;;;;;;;;5054088;28;20377;-68
2022/03/25 01:22:12;;;;;;;17.30;14.03;;;;;;;;;;5052579;28;20401;-69
2022/03/25 01:24:38;;;;;;;15.23;13.50;;;;;;;;;;5053802;28;20532;-69
2022/03/25 01:27:04;;;;;;;15.40;13.67;;;;;;;;;;5053770;28;20497;-69
2022/03/25 01:29:30;;;;;;;21.73;14.20;;;;;;;;;;5053769;28;20454;-69
2022/03/25 01:31:56;;;;;;;16.03;13.70;;;;;;;;;;5053746;28;20497;-69
2022/03/25 01:34:26;;;;;;;23.63;14.23;;;;;;;;;;5053664;28;20376;-68
2022/03/25 01:36:51;;;;;;;19.50;13.83;;;;;;;;;;5052257;28;20471;-69
2022/03/25 01:39:17;;;;;;;20.17;14.30;;;;;;;;;;5063170;28;21070;-69
2022/03/25 01:41:47;;;;;;;16.77;12.40;;;;;;;;;;5073502;28;20406;-69
2022/03/25 01:44:13;;;;;;;19.57;14.10;;;;;;;;;;5073770;28;20388;-69
2022/03/25 01:46:39;;;;;;;15.30;13.33;;;;;;;;;;5072091;28;20781;-69
2022/03/25 01:49:05;;;;;;;14.17;12.67;;;;;;;;;;5073550;28;20387;-68
2022/03/25 01:51:34;;;;;;;18.13;14.23;;;;;;;;;;5072118;28;20397;-67
2022/03/25 01:54:01;;;;;;;23.33;13.80;;;;;;;;;;5073424;28;20522;-68
2022/03/25 01:56:29;;;;;;;19.40;13.90;;;;;;;;;;5072498;28;20440;-65
2022/03/25 01:58:55;;;;;;;19.60;13.97;;;;;;;;;;5072045;28;20403;-68
2022/03/25 02:01:22;;;;;;;16.40;13.40;;;;;;;;;;5073322;28;20384;-68
2022/03/25 02:03:48;;;;;;;17.20;13.50;;;;;;;;;;5073266;28;20388;-67
2022/03/25 02:06:14;;;;;;;14.20;12.77;;;;;;;;;;5073321;28;20410;-69
2022/03/25 02:08:40;;;;;;;20.87;14.07;;;;;;;;;;5073125;28;20405;-67
2022/03/25 02:11:09;;;;;;;18.23;14.47;;;;;;;;;;5073219;28;20790;-66
2022/03/25 02:13:35;;;;;;;18.03;14.90;;;;;;;;;;5073460;28;20501;-67
2022/03/25 02:16:01;;;;;;;20.87;14.60;;;;;;;;;;5073033;28;20468;-67
2022/03/25 02:18:27;;;;;;;18.37;14.57;;;;;;;;;;5073173;28;20402;-68
2022/03/25 02:20:53;;;;;;;18.63;14.03;;;;;;;;;;5073427;28;20361;-66
2022/03/25 02:23:21;;;;;;;24.77;14.57;;;;;;;;;;5073077;28;20412;-66
2022/03/25 02:25:50;;;;;;;19.27;14.63;;;;;;;;;;5073074;28;20401;-66
2022/03/25 02:28:16;;;;;;;20.00;14.23;;;;;;;;;;5073040;28;20434;-67
2022/03/25 02:30:43;;;;;;;19.70;14.23;;;;;;;;;;5073037;28;20440;-69
2022/03/25 02:33:10;;;;;;;22.43;15.43;;;;;;;;;;5073092;28;20398;-68
2022/03/25 02:35:40;;;;;;;19.73;13.80;;;;;;;;;;5072913;28;20756;-68
2022/03/25 02:38:07;;;;;;;16.77;14.43;;;;;;;;;;5072919;28;20410;-69
2022/03/25 02:40:33;;;;;;;18.00;14.30;;;;;;;;;;5072734;28;20422;-67
2022/03/25 02:42:59;;;;;;;22.17;15.30;;;;;;;;;;5072960;28;20563;-69
2022/03/25 02:45:25;;;;;;;19.17;14.60;;;;;;;;;;5072871;28;20406;-69
2022/03/25 02:47:51;;;;;;;22.20;15.00;;;;;;;;;;5072811;28;20405;-68
2022/03/25 02:50:17;;;;;;;20.53;14.73;;;;;;;;;;5072815;28;20397;-68
2022/03/25 02:52:43;;;;;;;20.67;14.57;;;;;;;;;;5072697;28;20413;-68
2022/03/25 02:55:10;;;;;;;17.80;13.83;;;;;;;;;;5072762;28;20430;-69
2022/03/25 02:57:36;;;;;;;17.00;13.40;;;;;;;;;;5072664;28;20470;-70
2022/03/25 03:00:09;;;;;;;18.00;14.63;;;;;;;;;;5072728;28;20748;-68
2022/03/25 03:02:35;;;;;;;16.90;15.10;;;;;;;;;;5071494;28;20430;-67
2022/03/25 03:05:01;;;;;;;18.20;14.40;;;;;;;;;;5072715;28;20381;-68
2022/03/25 03:07:28;;;;;;;15.87;13.63;;;;;;;;;;5072673;28;20381;-68
2022/03/25 03:09:54;;;;;;;16.60;14.07;;;;;;;;;;5075024;28;20490;-67
2022/03/25 03:12:20;;;;;;;19.17;14.80;;;;;;;;;;5076293;28;20388;-68
2022/03/25 03:14:47;;;;;;;19.20;14.10;;;;;;;;;;5076154;28;20793;-68
2022/03/25 03:17:13;;;;;;;16.83;13.68;;;;;;;;;;5076106;28;20440;-68
2022/03/25 03:19:39;;;;;;;20.77;15.00;;;;;;;;;;5074896;28;20232;-69
2022/03/25 03:22:05;;;;;;;16.52;14.60;;;;;;;;;;5076060;28;20251;-68
2022/03/25 03:24:31;;;;;;;17.63;14.50;;;;;;;;;;5076048;28;20254;-69
2022/03/25 03:27:00;;;;;;;23.27;15.95;;;;;;;;;;5075960;28;20501;-69
2022/03/25 03:29:26;;;;;;;19.98;14.98;;;;;;;;;;5075996;28;20160;-66
2022/03/25 03:31:52;;;;;;;19.33;13.73;;;;;;;;;;5075907;28;20262;-67
2022/03/25 03:34:18;;;;;;;19.20;15.83;;;;;;;;;;5075837;28;20395;-67
2022/03/25 03:36:44;;;;;;;22.93;15.20;;;;;;;;;;5074481;28;20539;-65
2022/03/25 03:39:11;;;;;;;25.10;16.90;;;;;;;;;;5075543;28;20479;-68
2022/03/25 03:41:37;;;;;;;21.30;15.15;;;;;;;;;;5075761;28;20497;-68
2022/03/25 03:44:03;;;;;;;24.15;15.95;;;;;;;;;;5075892;28;20593;-69
2022/03/25 03:46:29;;;;;;;19.27;14.80;;;;;;;;;;5075618;28;20225;-69
2022/03/25 03:48:55;;;;;;;25.08;16.45;;;;;;;;;;5075912;28;20174;-68
2022/03/25 03:51:21;;;;;;;19.43;15.37;;;;;;;;;;5075550;28;20199;-66
2022/03/25 03:53:47;;;;;;;22.37;15.93;;;;;;;;;;5075464;28;20947;-68
2022/03/25 03:56:13;;;;;;;17.23;14.10;;;;;;;;;;5075464;28;20979;-68
2022/03/25 03:58:40;;;;;;;21.80;16.30;;;;;;;;;;5075457;28;20409;-67
2022/03/25 04:01:06;;;;;;;22.67;15.23;;;;;;;;;;5075399;28;20391;-67
2022/03/25 04:03:32;;;;;;;25.70;15.93;;;;;;;;;;5075400;28;20191;-69
2022/03/25 04:05:58;;;;;;;22.55;15.82;;;;;;;;;;5074055;28;20472;-68
2022/03/25 04:08:24;;;;;;;19.23;15.13;;;;;;;;;;5075166;28;20233;-68
2022/03/25 04:10:53;;;;;;;21.35;15.05;;;;;;;;;;5075228;28;20871;-68
2022/03/25 04:13:19;;;;;;;23.40;16.10;;;;;;;;;;5075136;28;20239;-68
2022/03/25 04:15:48;;;;;;;22.60;15.10;;;;;;;;;;5075066;28;20275;-69
2022/03/25 04:18:14;;;;;;;22.98;16.05;;;;;;;;;;5075072;28;20429;-68
2022/03/25 04:20:42;;;;;;;22.13;15.53;;;;;;;;;;5074384;28;20175;-69
2022/03/25 04:23:08;;;;;;;25.00;15.82;;;;;;;;;;5074839;28;20513;-69
2022/03/25 04:25:35;;;;;;;35.23;16.03;;;;;;;;;;5074959;28;20247;-68
2022/03/25 04:28:01;;;;;;;29.17;15.68;;;;;;;;;;5074851;28;20446;-67
2022/03/25 04:30:28;;;;;;;25.40;15.70;;;;;;;;;;5075117;28;20179;-67
2022/03/25 04:32:58;;;;;;;20.67;15.25;;;;;;;;;;5074714;28;20213;-68
2022/03/25 04:35:28;;;;;;;38.80;16.13;;;;;;;;;;5074677;28;20164;-68
2022/03/25 04:37:54;;;;;;;21.50;14.35;;;;;;;;;;5073157;28;20183;-67
2022/03/25 04:40:21;;;;;;;23.38;14.73;;;;;;;;;;5073222;28;20228;-68
2022/03/25 04:42:48;;;;;;;20.88;16.27;;;;;;;;;;5074590;28;20242;-68
2022/03/25 04:45:14;;;;;;;22.30;15.98;;;;;;;;;;5074495;28;20211;-68
2022/03/25 04:47:40;;;;;;;20.02;15.50;;;;;;;;;;5074459;28;20171;-68
2022/03/25 04:50:06;;;;;;;23.27;15.77;;;;;;;;;;5074404;28;20171;-69
2022/03/25 04:52:32;;;;;;;23.08;15.75;;;;;;;;;;5074407;28;20507;-71
2022/03/25 04:54:58;;;;;;;24.37;16.10;;;;;;;;;;5074285;28;20186;-68
2022/03/25 04:57:25;;;;;;;23.42;16.23;;;;;;;;;;5074269;28;20563;-69
2022/03/25 04:59:51;;;;;;;21.40;15.93;;;;;;;;;;5074210;28;20247;-68
2022/03/25 05:02:17;;;;;;;20.20;15.50;;;;;;;;;;5074125;28;20600;-68
2022/03/25 05:04:44;;;;;;;26.00;16.30;;;;;;;;;;5072865;28;20430;-69
2022/03/25 05:07:16;;;;;;;25.35;14.60;;;;;;;;;;5074000;28;20414;-67
2022/03/25 05:09:42;;;;;;;17.98;14.60;;;;;;;;;;5074003;28;20171;-65
2022/03/25 05:12:09;;;;;;;26.95;15.05;;;;;;;;;;5074025;28;20176;-68
2022/03/25 05:14:35;;;;;;;16.83;14.02;;;;;;;;;;5072852;28;20254;-69
2022/03/25 05:17:01;;;;;;;19.93;15.60;;;;;;;;;;5073836;28;20295;-67
2022/03/25 05:19:27;;;;;;;21.83;15.52;;;;;;;;;;5073899;28;20403;-68
2022/03/25 05:21:53;;;;;;;18.33;15.30;;;;;;;;;;5073759;28;20179;-68
2022/03/25 05:24:19;;;;;;;23.38;16.42;;;;;;;;;;5073709;28;20237;-68
2022/03/25 05:26:45;;;;;;;21.93;17.07;;;;;;;;;;5073746;28;20560;-68
2022/03/25 05:29:11;;;;;;;20.10;16.30;;;;;;;;;;5073980;28;20394;-69
2022/03/25 05:31:38;;;;;;;23.88;17.30;;;;;;;;;;5073576;28;20168;-69
2022/03/25 05:34:04;;;;;;;25.77;17.58;;;;;;;;;;5073719;28;20164;-69
2022/03/25 05:36:33;;;;;;;25.55;16.30;;;;;;;;;;5073488;28;20196;-69
2022/03/25 05:39:00;;;;;;;27.90;17.05;;;;;;;;;;5073421;28;20228;-69
2022/03/25 05:41:26;;;;;;;25.95;17.33;;;;;;;;;;5073551;28;20612;-69
2022/03/25 05:43:53;;;;;;;25.20;18.05;;;;;;;;;;5073522;28;20232;-68
2022/03/25 05:46:19;;;;;;;24.27;17.27;;;;;;;;;;5073496;28;20508;-69
2022/03/25 05:48:45;;;;;;;27.60;17.75;;;;;;;;;;5073402;28;20176;-69
2022/03/25 05:51:12;;;;;;;37.42;21.42;;;;;;;;;;5072137;28;20195;-69
2022/03/25 05:53:38;;;;;;;29.60;19.35;;;;;;;;;;5073371;28;20168;-69
2022/03/25 05:56:05;;;;;;;27.07;18.83;;;;;;;;;;5073303;28;20214;-69
2022/03/25 05:58:35;;;;;;;26.60;18.48;;;;;;;;;;5073392;28;20500;-68
2022/03/25 06:01:01;;;;;;;26.92;19.30;;;;;;;;;;5073593;28;20172;-69
2022/03/25 06:03:27;;;;;;;23.52;17.80;;;;;;;;;;5072169;28;20175;-68
2022/03/25 06:05:53;;;;;;;34.93;24.20;;;;;;;;;;5073396;28;20160;-68
2022/03/25 06:08:19;;;;;;;123.35;80.13;;;;;;;;;;5073537;28;20421;-69
2022/03/25 06:10:46;;;;;;;26.90;18.33;;;;;;;;;;5072051;28;20539;-68
2022/03/25 06:13:12;;;;;;;29.60;18.42;;;;;;;;;;5073285;28;20493;-67
2022/03/25 06:15:38;;;;;;;25.10;18.37;;;;;;;;;;5073450;28;20202;-69
2022/03/25 06:18:04;;;;;;;25.20;17.85;;;;;;;;;;5073106;28;20414;-68
2022/03/25 06:20:30;;;;;;;27.35;20.05;;;;;;;;;;5073132;28;20531;-68
2022/03/25 06:22:57;;;;;;;30.07;19.80;;;;;;;;;;5071874;28;20209;-67
2022/03/25 06:25:23;;;;;;;27.30;19.17;;;;;;;;;;5073132;28;20434;-67
2022/03/25 06:27:50;;;;;;;30.70;18.80;;;;;;;;;;5073188;28;20248;-66
2022/03/25 06:30:17;;;;;;;24.50;17.80;;;;;;;;;;5073052;28;20251;-67
2022/03/25 06:32:43;;;;;;;28.00;18.00;;;;;;;;;;5073052;28;20172;-68
2022/03/25 06:35:09;;;;;;;27.45;18.65;;;;;;;;;;5073293;28;20260;-66
2022/03/25 06:37:36;;;;;;;30.40;18.50;;;;;;;;;;5072888;28;20373;-63
2022/03/25 06:40:02;;;;;;;32.87;18.50;;;;;;;;;;5072807;28;20457;-65
2022/03/25 06:42:28;;;;;;;35.17;19.40;;;;;;;;;;5072943;28;20417;-65
2022/03/25 06:44:54;;;;;;;24.60;18.17;;;;;;;;;;5076776;28;20168;-66
2022/03/25 06:47:20;;;;;;;26.40;18.50;;;;;;;;;;5077102;28;20901;-65
2022/03/25 06:49:46;;;;;;;30.63;18.23;;;;;;;;;;5076809;28;20428;-65
2022/03/25 06:52:12;;;;;;;28.48;19.55;;;;;;;;;;5076784;28;20402;-64
2022/03/25 06:54:38;;;;;;;25.10;19.57;;;;;;;;;;5076722;28;20182;-64
2022/03/25 06:57:04;;;;;;;30.20;20.57;;;;;;;;;;5076582;28;20531;-64
2022/03/25 06:59:30;;;;;;;28.60;20.43;;;;;;;;;;5076624;28;20388;-65
2022/03/25 07:01:57;;;;;;;25.43;19.20;;;;;;;;;;5076512;28;20414;-64
2022/03/25 07:04:23;;;;;;;31.60;19.83;;;;;;;;;;5076479;28;20871;-66
2022/03/25 07:06:49;;;;;;;29.20;19.93;;;;;;;;;;5076443;28;20413;-65
2022/03/25 07:09:16;;;;;;;29.00;20.07;;;;;;;;;;5076543;28;20722;-67
2022/03/25 07:11:42;;;;;;;35.60;20.73;;;;;;;;;;5076467;28;20406;-66
2022/03/25 07:14:08;;;;;;;28.87;22.07;;;;;;;;;;5076488;28;20410;-65
2022/03/25 07:16:37;;;;;;;44.30;27.33;;;;;;;;;;5076256;28;20446;-66
2022/03/25 07:19:03;;;;;;;30.50;21.77;;;;;;;;;;5076383;28;20392;-64
2022/03/25 07:21:29;;;;;;;28.00;19.30;;;;;;;;;;5076179;28;20860;-64
2022/03/25 07:23:55;;;;;;;28.53;19.60;;;;;;;;;;5076403;28;20467;-65
2022/03/25 07:26:21;;;;;;;26.33;19.43;;;;;;;;;;5076111;28;20385;-67
2022/03/25 07:28:47;;;;;;;29.77;19.10;;;;;;;;;;5076115;28;20864;-66
2022/03/25 07:31:13;;;;;;;25.50;20.03;;;;;;;;;;5075976;28;20728;-67
2022/03/25 07:33:39;;;;;;;28.50;20.20;;;;;;;;;;5076024;28;20365;-67
2022/03/25 07:36:05;;;;;;;28.00;20.80;;;;;;;;;;5075914;28;20567;-67
2022/03/25 07:38:31;;;;;;;28.90;21.33;;;;;;;;;;5075691;28;20477;-67
2022/03/25 07:40:57;;;;;;;31.30;20.27;;;;;;;;;;5074450;28;20410;-66
2022/03/25 07:43:23;;;;;;;27.20;19.13;;;;;;;;;;5075820;28;20518;-66
2022/03/25 07:45:49;;;;;;;31.00;21.70;;;;;;;;;;5075763;28;20414;-66
2022/03/25 07:48:15;;;;;;;27.00;19.70;;;;;;;;;;5075821;28;20407;-67
2022/03/25 07:50:42;;;;;;;24.63;19.60;;;;;;;;;;5075705;28;20417;-64
2022/03/25 07:53:09;;;;;;;27.33;19.53;;;;;;;;;;5075559;28;20878;-66
2022/03/25 07:55:35;;;;;;;33.13;21.33;;;;;;;;;;5074269;28;20495;-66
2022/03/25 07:58:01;;;;;;;26.50;19.70;;;;;;;;;;5075537;28;20927;-66
2022/03/25 08:00:27;;;;;;;23.13;18.23;;;;;;;;;;5075476;28;20456;-66
2022/03/25 08:02:53;;;;;;;33.03;20.50;;;;;;;;;;5075383;28;20410;-66
2022/03/25 08:05:19;;;;;;;32.30;21.90;;;;;;;;;;5075324;28;20399;-66
2022/03/25 08:07:52;;;;;;;26.10;19.70;;;;;;;;;;5073976;28;20418;-66
2022/03/25 08:10:20;;;;;;;32.27;20.50;;;;;;;;;;5075311;28;20398;-66
2022/03/25 08:12:47;;;;;;;28.53;20.53;;;;;;;;;;5075289;28;20774;-66
2022/03/25 08:15:13;;;;;;;31.57;20.87;;;;;;;;;;5075222;28;20425;-66
2022/03/25 08:17:49;;;;;;;30.77;20.47;;;;;;;;;;5074895;28;20519;-65
2022/03/25 08:20:23;;;;;;;35.23;20.67;;;;;;;;;;5075157;28;20402;-65
2022/03/25 08:22:49;;;;;;;38.57;22.20;;;;;;;;;;5075047;28;20399;-66
2022/03/25 08:28:00;;;;;;;34.30;22.63;;;;;;;;;;5074855;28;20481;-68
2022/03/25 08:30:26;;;;;;;37.13;24.37;;;;;;;;;;5073530;28;20909;-67
2022/03/25 08:32:53;;;;;;;40.70;24.27;;;;;;;;;;5075125;28;20406;-66
2022/03/25 08:35:19;;;;;;;42.87;25.70;;;;;;;;;;5074853;28;20413;-68
2022/03/25 08:37:45;;;;;;;40.80;24.50;;;;;;;;;;5074678;28;20960;-68
2022/03/25 08:40:11;;;;;;;43.63;27.43;;;;;;;;;;5074533;28;20462;-68
2022/03/25 08:42:37;;;;;;;55.20;26.83;;;;;;;;;;5073314;28;20430;-67
2022/03/25 08:45:03;;;;;;;40.77;26.63;;;;;;;;;;5073236;28;20774;-68
2022/03/25 08:47:29;;;;;;;41.90;27.83;;;;;;;;;;5073238;28;20568;-68
2022/03/25 08:49:55;;;;;;;42.43;26.47;;;;;;;;;;5074559;28;20485;-67
2022/03/25 08:52:21;;;;;;;46.67;28.03;;;;;;;;;;5074714;28;20504;-68
2022/03/25 08:54:48;;;;;;;44.40;27.93;;;;;;;;;;5074313;28;20402;-65
2022/03/25 08:57:14;;;;;;;50.63;29.00;;;;;;;;;;5074293;28;20527;-68
2022/03/25 08:59:40;;;;;;;48.70;28.40;;;;;;;;;;5074283;28;20430;-67
2022/03/25 09:02:06;;;;;;;41.17;29.30;;;;;;;;;;5074270;28;20949;-68
2022/03/25 09:04:32;;;;;;;39.77;25.37;;;;;;;;;;5074218;28;20402;-66
2022/03/25 09:06:59;;;;;;;44.80;26.67;;;;;;;;;;5072372;28;20465;-65
2022/03/25 09:09:25;;;;;;;50.10;28.87;;;;;;;;;;5072692;28;20423;-65
2022/03/25 09:11:51;;;;;;;42.57;25.97;;;;;;;;;;5074122;28;20467;-66
2022/03/25 09:14:17;;;;;;;39.33;27.10;;;;;;;;;;5074215;28;20893;-66
2022/03/25 09:16:44;;;;;;;42.67;28.70;;;;;;;;;;5074193;28;20473;-66
2022/03/25 09:19:10;;;;;;;41.90;26.03;;;;;;;;;;5073874;28;20961;-67
2022/03/25 09:21:36;;;;;;;48.60;28.23;;;;;;;;;;5073807;28;20451;-67
2022/03/25 09:24:02;;;;;;;46.37;27.30;;;;;;;;;;5072591;28;20505;-67
2022/03/25 09:26:28;;;;;;;41.80;25.97;;;;;;;;;;5072591;28;20574;-67
2022/03/25 09:28:54;;;;;;;40.20;26.40;;;;;;;;;;5073725;28;20453;-67
2022/03/25 09:31:20;;;;;;;37.00;26.90;;;;;;;;;;5072446;28;20426;-67
2022/03/25 09:33:46;;;;;;;42.13;27.13;;;;;;;;;;5072501;28;20786;-68
2022/03/25 09:36:14;;;;;;;42.93;28.70;;;;;;;;;;5073594;28;20453;-68
2022/03/25 09:38:40;;;;;;;44.00;27.67;;;;;;;;;;5073425;28;20559;-68
2022/03/25 09:41:07;;;;;;;45.60;28.03;;;;;;;;;;5073553;28;20910;-68
2022/03/25 09:43:34;;;;;;;45.10;28.37;;;;;;;;;;5073579;28;20402;-68
2022/03/25 09:46:00;;;;;;;45.93;27.80;;;;;;;;;;5072438;28;20796;-69
2022/03/25 09:48:26;;;;;;;45.13;27.13;;;;;;;;;;5072249;28;20406;-69
2022/03/25 09:50:52;;;;;;;49.53;28.00;;;;;;;;;;5073671;28;20486;-68
2022/03/25 09:53:18;;;;;;;43.17;27.30;;;;;;;;;;5073499;28;20881;-69
2022/03/25 09:55:46;;;;;;;50.83;30.13;;;;;;;;;;5073295;28;20867;-68
2022/03/25 09:58:18;;;;;;;39.50;27.30;;;;;;;;;;5073368;28;20978;-68
2022/03/25 10:00:49;;;;;;;41.93;28.13;;;;;;;;;;5073672;28;20483;-67
2022/03/25 10:03:22;;;;;;;46.20;27.67;;;;;;;;;;5072170;28;20439;-69
2022/03/25 10:05:54;;;;;;;42.13;28.47;;;;;;;;;;5073356;28;20414;-69
2022/03/25 10:08:33;;;;;;;41.37;26.87;;;;;;;;;;5072045;28;20435;-68
2022/03/25 10:11:17;;;;;;;36.80;27.03;;;;;;;;;;5073351;28;20397;-66
2022/03/25 10:13:43;;;;;;;38.80;26.83;;;;;;;;;;5073251;28;20413;-67
2022/03/25 10:16:26;;;;;;;38.83;26.60;;;;;;;;;;5073143;28;20471;-67
2022/03/25 10:18:56;;;;;;;42.10;26.83;;;;;;;;;;5075801;28;20773;-68
2022/03/25 10:21:22;;;;;;;46.10;27.80;;;;;;;;;;5077383;28;20412;-67
2022/03/25 10:23:48;;;;;;;38.60;27.43;;;;;;;;;;5077241;28;20409;-69
2022/03/25 10:26:14;;;;;;;43.00;27.50;;;;;;;;;;5077280;28;20772;-68
2022/03/25 10:28:41;;;;;;;37.50;26.80;;;;;;;;;;5077294;28;20468;-66
2022/03/25 10:31:14;;;;;;;37.27;25.70;;;;;;;;;;5077021;28;20406;-67
2022/03/25 10:33:44;;;;;;;36.10;25.90;;;;;;;;;;5077110;28;20453;-66
2022/03/25 10:36:14;;;;;;;35.20;26.67;;;;;;;;;;5076680;28;20466;-67
2022/03/25 10:38:49;;;;;;;34.23;26.07;;;;;;;;;;5075160;28;20824;-67
2022/03/25 10:41:20;;;;;;;43.20;26.50;;;;;;;;;;5076668;28;20406;-68
2022/03/25 10:43:53;;;;;;;42.43;26.70;;;;;;;;;;5076911;28;20405;-65
2022/03/25 10:46:32;;;;;;;38.67;26.53;;;;;;;;;;5075076;28;20907;-67
2022/03/25 10:48:58;;;;;;;42.83;28.20;;;;;;;;;;5076802;28;20572;-66
2022/03/25 10:51:24;;;;;;;42.53;24.93;;;;;;;;;;5076543;28;20400;-68
2022/03/25 10:54:11;;;;;;;34.43;25.13;;;;;;;;;;5076482;28;20902;-68
2022/03/25 10:56:47;;;;;;;36.70;23.53;;;;;;;;;;5076485;28;20555;-75
2022/03/25 10:59:23;;;;;;;41.47;26.73;;;;;;;;;;5076694;28;20417;-79
2022/03/25 11:01:51;;;;;;;37.57;27.43;;;;;;;;;;5075971;28;20396;-74
2022/03/25 11:04:17;;;;;;;35.37;26.47;;;;;;;;;;5075077;28;20430;-70
2022/03/25 11:06:45;;;;;;;35.47;25.97;;;;;;;;;;5076534;28;20395;-72
2022/03/25 11:09:11;;;;;;;45.27;25.93;;;;;;;;;;5076269;28;20422;-66
2022/03/25 11:11:38;;;;;;;38.80;28.00;;;;;;;;;;5076369;28;20968;-70
2022/03/25 11:14:04;;;;;;;42.33;28.10;;;;;;;;;;5076336;28;20416;-66
2022/03/25 11:16:32;;;;;;;45.60;28.23;;;;;;;;;;5076247;28;20522;-69
2022/03/25 11:18:59;;;;;;;37.20;28.00;;;;;;;;;;5076807;28;20420;-73
2022/03/25 11:21:27;;;;;;;42.00;28.50;;;;;;;;;;5076253;28;20405;-73
2022/03/25 11:23:53;;;;;;;44.03;28.77;;;;;;;;;;5076183;28;20464;-67
2022/03/25 11:26:24;;;;;;;36.50;28.33;;;;;;;;;;5076008;28;20408;-67
2022/03/25 11:28:55;;;;;;;34.90;27.63;;;;;;;;;;5075705;28;20409;-68
2022/03/25 11:31:21;;;;;;;47.33;28.93;;;;;;;;;;5075896;28;20841;-68
2022/03/25 11:34:16;;;;;;;41.63;28.90;;;;;;;;;;5076056;28;20404;-70
2022/03/25 11:36:44;;;;;;;46.77;30.80;;;;;;;;;;5074599;28;20478;-68
2022/03/25 11:39:17;;;;;;;39.80;29.60;;;;;;;;;;5075668;28;20495;-71
2022/03/25 11:41:43;;;;;;;41.10;28.93;;;;;;;;;;5075920;28;20399;-68
2022/03/25 11:44:14;;;;;;;43.93;31.20;;;;;;;;;;5075782;28;20421;-70
2022/03/25 11:46:59;;;;;;;41.80;29.77;;;;;;;;;;5074430;28;20420;-69
2022/03/25 11:49:25;;;;;;;41.27;28.97;;;;;;;;;;5075718;28;20472;-67
2022/03/25 11:51:51;;;;;;;45.13;29.70;;;;;;;;;;5075685;28;20873;-69
2022/03/25 11:54:36;;;;;;;40.23;29.07;;;;;;;;;;5075604;28;20422;-68
2022/03/25 11:57:04;;;;;;;38.13;28.90;;;;;;;;;;5074290;28;20463;-72
2022/03/25 11:59:48;;;;;;;41.83;28.20;;;;;;;;;;5075551;28;20404;-70
2022/03/25 12:02:23;;;;;;;38.10;30.23;;;;;;;;;;5075453;28;20889;-76
2022/03/25 12:04:49;;;;;;;38.07;29.47;;;;;;;;;;5075452;28;20398;-73
2022/03/25 12:07:16;;;;;;;33.23;29.50;;;;;;;;;;5075377;28;20406;-74
2022/03/25 12:09:45;;;;;;;35.50;29.80;;;;;;;;;;5075310;28;20497;-73
2022/03/25 12:12:11;;;;;;;33.73;28.97;;;;;;;;;;5075600;28;20399;-74
2022/03/25 12:14:57;;;;;;;50.07;36.30;;;;;;;;;;5075293;28;20508;-71
2022/03/25 12:17:24;;;;;;;33.80;30.13;;;;;;;;;;5074986;28;20805;-73
2022/03/25 12:19:56;;;;;;;36.73;30.60;;;;;;;;;;5075133;28;20434;-75
2022/03/25 12:22:22;;;;;;;45.00;31.60;;;;;;;;;;5075331;28;20463;-75
2022/03/25 12:24:54;;;;;;;44.10;33.30;;;;;;;;;;5075084;28;20480;-71
2022/03/25 12:27:21;;;;;;;37.50;30.20;;;;;;;;;;5074934;28;20210;-70
2022/03/25 12:29:48;;;;;;;36.10;31.27;;;;;;;;;;5075003;28;20474;-71
2022/03/25 12:32:16;;;;;;;41.00;31.70;;;;;;;;;;5075118;28;20402;-70
2022/03/25 12:34:50;;;;;;;39.93;31.37;;;;;;;;;;5074875;28;20453;-74
2022/03/25 12:37:22;;;;;;;35.63;30.03;;;;;;;;;;5074544;28;20957;-71
2022/03/25 12:39:48;;;;;;;37.50;31.20;;;;;;;;;;5074571;28;20898;-72
2022/03/25 12:42:14;;;;;;;39.23;31.70;;;;;;;;;;5073972;28;20413;-70
2022/03/25 12:44:40;;;;;;;34.53;27.93;;;;;;;;;;5074900;28;20920;-69
2022/03/25 12:47:07;;;;;;;40.13;29.67;;;;;;;;;;5074553;28;20420;-73
2022/03/25 12:49:34;;;;;;;41.10;30.60;;;;;;;;;;5073167;28;20450;-71
2022/03/25 12:52:03;;;;;;;38.53;28.60;;;;;;;;;;5074431;28;20412;-73
2022/03/25 12:54:30;;;;;;;36.47;28.57;;;;;;;;;;5074304;28;20529;-68
2022/03/25 12:56:57;;;;;;;47.00;31.13;;;;;;;;;;5074386;28;20818;-73
2022/03/25 12:59:28;;;;;;;40.90;30.63;;;;;;;;;;5074264;28;20412;-72
2022/03/25 13:01:54;;;;;;;37.10;29.77;;;;;;;;;;5074401;28;20410;-70
2022/03/25 13:04:29;;;;;;;42.63;31.13;;;;;;;;;;5074270;28;20760;-69
2022/03/25 13:06:58;;;;;;;48.43;31.67;;;;;;;;;;5074121;28;20882;-70
2022/03/25 13:09:25;;;;;;;42.43;31.20;;;;;;;;;;5073958;28;20426;-73
2022/03/25 13:11:56;;;;;;;45.20;32.63;;;;;;;;;;5073976;28;20783;-67
2022/03/25 13:14:23;;;;;;;43.13;32.07;;;;;;;;;;5074088;28;20413;-70
2022/03/25 13:16:49;;;;;;;38.13;30.83;;;;;;;;;;5073844;28;20476;-70
2022/03/25 13:19:16;;;;;;;49.37;31.47;;;;;;;;;;5073995;28;20484;-70
2022/03/25 13:21:43;;;;;;;43.40;30.80;;;;;;;;;;5073888;28;20914;-68
2022/03/25 13:24:09;;;;;;;37.90;28.17;;;;;;;;;;5074112;28;20445;-68
2022/03/25 13:26:36;;;;;;;37.20;29.23;;;;;;;;;;5073900;28;20412;-69
2022/03/25 13:29:03;;;;;;;43.43;31.33;;;;;;;;;;5073814;28;20412;-68
2022/03/25 13:31:29;;;;;;;40.40;32.47;;;;;;;;;;5072444;28;20418;-68
2022/03/25 13:33:55;;;;;;;40.93;28.60;;;;;;;;;;5073739;28;20755;-70
2022/03/25 13:36:29;;;;;;;37.27;29.07;;;;;;;;;;5073239;28;20462;-68
2022/03/25 13:38:55;;;;;;;35.73;28.10;;;;;;;;;;5073484;28;20464;-69
2022/03/25 13:41:22;;;;;;;38.10;27.87;;;;;;;;;;5073888;28;20396;-69
2022/03/25 13:43:49;;;;;;;38.33;28.10;;;;;;;;;;5073630;28;20504;-73
2022/03/25 13:46:24;;;;;;;34.47;28.90;;;;;;;;;;5073698;28;20407;-72
2022/03/25 13:48:52;;;;;;;48.33;28.67;;;;;;;;;;5073634;28;20403;-75
2022/03/25 13:51:21;;;;;;;38.63;28.30;;;;;;;;;;5073525;28;20441;-69
2022/03/25 13:53:48;;;;;;;41.67;29.13;;;;;;;;;;5073685;28;20424;-75
2022/03/25 13:56:16;;;;;;;40.13;27.97;;;;;;;;;;5073398;28;20515;-68
2022/03/25 13:58:49;;;;;;;40.13;28.90;;;;;;;;;;5072113;28;20425;-73
2022/03/25 14:01:15;;;;;;;34.60;28.77;;;;;;;;;;5073522;28;20421;-69
2022/03/25 14:03:41;;;;;;;38.37;27.90;;;;;;;;;;5072014;28;20439;-70
2022/03/25 14:06:11;;;;;;;40.40;28.07;;;;;;;;;;5073259;28;20504;-71
2022/03/25 14:08:37;;;;;;;37.43;28.00;;;;;;;;;;5073245;28;20416;-70
2022/03/25 14:11:04;;;;;;;38.23;29.13;;;;;;;;;;5073172;28;20401;-74
2022/03/25 14:13:30;;;;;;;39.47;31.00;;;;;;;;;;5073324;28;20405;-70
2022/03/25 14:16:12;;;;;;;38.03;31.53;;;;;;;;;;5073156;28;20466;-73
2022/03/25 14:18:47;;;;;;;35.17;27.50;;;;;;;;;;5073152;28;20412;-75
2022/03/25 14:21:25;;;;;;;39.30;29.77;;;;;;;;;;5073192;28;20417;-74